sensor_id;sensor_type;location;lat;lon;timestamp;temperature;humidity
45843;DHT22;31563;51.744;8.252;2023-03-08T00:01:02;16.30;42.50
45843;DHT22;31563;51.744;8.252;2023-03-08T00:03:30;16.30;42.40
45843;DHT22;31563;51.744;8.252;2023-03-08T00:06:03;16.30;42.50
45843;DHT22;31563;51.744;8.252;2023-03-08T00:08:31;16.30;42.50
45843;DHT22;31563;51.744;8.252;2023-03-08T00:10:59;16.20;43.00
45843;DHT22;31563;51.744;8.252;2023-03-08T00:13:33;16.20;42.30
45843;DHT22;31563;51.744;8.252;2023-03-08T00:16:01;16.20;42.40
45843;DHT22;31563;51.744;8.252;2023-03-08T00:18:30;16.10;42.30
45843;DHT22;31563;51.744;8.252;2023-03-08T00:20:59;16.10;42.30
45843;DHT22;31563;51.744;8.252;2023-03-08T00:23:28;16.10;42.30
45843;DHT22;31563;51.744;8.252;2023-03-08T00:25:56;16.10;42.40
45843;DHT22;31563;51.744;8.252;2023-03-08T00:28:24;16.10;42.40
45843;DHT22;31563;51.744;8.252;2023-03-08T00:30:58;16.10;42.50
45843;DHT22;31563;51.744;8.252;2023-03-08T00:33:27;16.10;42.50
45843;DHT22;31563;51.744;8.252;2023-03-08T00:35:57;16.10;42.40
45843;DHT22;31563;51.744;8.252;2023-03-08T00:38:25;16.10;42.30
45843;DHT22;31563;51.744;8.252;2023-03-08T00:40:54;16.10;42.30
45843;DHT22;31563;51.744;8.252;2023-03-08T00:43:22;16.10;42.30
45843;DHT22;31563;51.744;8.252;2023-03-08T00:45:50;16.10;42.40
45843;DHT22;31563;51.744;8.252;2023-03-08T00:48:20;16.10;42.40
45843;DHT22;31563;51.744;8.252;2023-03-08T00:50:48;16.00;42.30
45843;DHT22;31563;51.744;8.252;2023-03-08T00:53:17;16.00;42.30
45843;DHT22;31563;51.744;8.252;2023-03-08T00:55:48;16.00;42.40
45843;DHT22;31563;51.744;8.252;2023-03-08T00:58:16;16.00;42.30
45843;DHT22;31563;51.744;8.252;2023-03-08T01:00:45;16.00;42.40
45843;DHT22;31563;51.744;8.252;2023-03-08T01:03:14;15.90;42.30
45843;DHT22;31563;51.744;8.252;2023-03-08T01:05:45;16.00;42.40
45843;DHT22;31563;51.744;8.252;2023-03-08T01:08:15;15.90;42.30
45843;DHT22;31563;51.744;8.252;2023-03-08T01:10:46;15.90;42.30
45843;DHT22;31563;51.744;8.252;2023-03-08T01:13:15;15.90;42.30
45843;DHT22;31563;51.744;8.252;2023-03-08T01:15:43;15.90;42.30
45843;DHT22;31563;51.744;8.252;2023-03-08T01:18:12;15.80;42.30
45843;DHT22;31563;51.744;8.252;2023-03-08T01:20:40;15.80;42.30
45843;DHT22;31563;51.744;8.252;2023-03-08T01:23:10;15.90;46.90
45843;DHT22;31563;51.744;8.252;2023-03-08T01:25:38;15.80;42.30
45843;DHT22;31563;51.744;8.252;2023-03-08T01:28:07;15.90;42.30
45843;DHT22;31563;51.744;8.252;2023-03-08T01:30:35;16.10;48.00
45843;DHT22;31563;51.744;8.252;2023-03-08T01:33:03;16.30;47.60
45843;DHT22;31563;51.744;8.252;2023-03-08T01:35:31;15.70;48.20
45843;DHT22;31563;51.744;8.252;2023-03-08T01:38:00;16.20;49.10
45843;DHT22;31563;51.744;8.252;2023-03-08T01:40:29;15.70;42.30
45843;DHT22;31563;51.744;8.252;2023-03-08T01:42:57;15.70;42.30
45843;DHT22;31563;51.744;8.252;2023-03-08T01:48:42;15.60;41.80
45843;DHT22;31563;51.744;8.252;2023-03-08T01:51:14;15.60;43.00
45843;DHT22;31563;51.744;8.252;2023-03-08T01:53:43;15.40;48.50
45843;DHT22;31563;51.744;8.252;2023-03-08T01:56:14;15.70;50.00
45843;DHT22;31563;51.744;8.252;2023-03-08T01:58:46;15.50;50.10
45843;DHT22;31563;51.744;8.252;2023-03-08T02:01:17;15.40;50.10
45843;DHT22;31563;51.744;8.252;2023-03-08T02:03:45;15.60;42.40
45843;DHT22;31563;51.744;8.252;2023-03-08T02:06:15;15.60;51.50
45843;DHT22;31563;51.744;8.252;2023-03-08T02:08:44;15.40;50.00
45843;DHT22;31563;51.744;8.252;2023-03-08T02:11:14;15.70;49.40
45843;DHT22;31563;51.744;8.252;2023-03-08T02:13:44;15.40;50.20
45843;DHT22;31563;51.744;8.252;2023-03-08T02:16:13;15.70;48.80
45843;DHT22;31563;51.744;8.252;2023-03-08T02:18:53;15.50;48.40
45843;DHT22;31563;51.744;8.252;2023-03-08T02:21:22;15.50;42.20
45843;DHT22;31563;51.744;8.252;2023-03-08T02:23:52;15.70;49.40
45843;DHT22;31563;51.744;8.252;2023-03-08T02:26:21;15.60;49.10
45843;DHT22;31563;51.744;8.252;2023-03-08T02:28:49;15.40;48.90
45843;DHT22;31563;51.744;8.252;2023-03-08T02:31:17;15.60;49.10
45843;DHT22;31563;51.744;8.252;2023-03-08T02:33:46;15.70;49.10
45843;DHT22;31563;51.744;8.252;2023-03-08T02:36:14;16.00;48.60
45843;DHT22;31563;51.744;8.252;2023-03-08T02:38:42;15.50;47.90
45843;DHT22;31563;51.744;8.252;2023-03-08T02:41:12;15.30;49.30
45843;DHT22;31563;51.744;8.252;2023-03-08T02:43:40;15.40;43.10
45843;DHT22;31563;51.744;8.252;2023-03-08T02:46:10;15.40;48.90
45843;DHT22;31563;51.744;8.252;2023-03-08T02:48:38;15.40;42.10
45843;DHT22;31563;51.744;8.252;2023-03-08T02:51:06;15.20;48.10
45843;DHT22;31563;51.744;8.252;2023-03-08T02:53:34;15.10;48.50
45843;DHT22;31563;51.744;8.252;2023-03-08T02:56:03;15.60;47.90
45843;DHT22;31563;51.744;8.252;2023-03-08T02:58:33;15.40;42.10
45843;DHT22;31563;51.744;8.252;2023-03-08T03:01:02;15.10;48.10
45843;DHT22;31563;51.744;8.252;2023-03-08T03:03:30;15.30;42.20
45843;DHT22;31563;51.744;8.252;2023-03-08T03:05:58;15.30;42.10
45843;DHT22;31563;51.744;8.252;2023-03-08T03:08:28;15.20;47.30
45843;DHT22;31563;51.744;8.252;2023-03-08T03:10:56;15.50;48.80
45843;DHT22;31563;51.744;8.252;2023-03-08T03:13:25;16.00;48.50
45843;DHT22;31563;51.744;8.252;2023-03-08T03:15:54;15.20;48.20
45843;DHT22;31563;51.744;8.252;2023-03-08T03:18:23;15.20;48.50
45843;DHT22;31563;51.744;8.252;2023-03-08T03:20:51;15.40;48.50
45843;DHT22;31563;51.744;8.252;2023-03-08T03:23:19;15.20;42.20
45843;DHT22;31563;51.744;8.252;2023-03-08T03:25:47;15.40;49.30
45843;DHT22;31563;51.744;8.252;2023-03-08T03:28:16;15.40;48.20
45843;DHT22;31563;51.744;8.252;2023-03-08T03:30:44;14.60;48.10
45843;DHT22;31563;51.744;8.252;2023-03-08T03:33:14;15.30;42.20
45843;DHT22;31563;51.744;8.252;2023-03-08T03:35:42;15.10;47.00
45843;DHT22;31563;51.744;8.252;2023-03-08T03:38:10;15.20;42.10
45843;DHT22;31563;51.744;8.252;2023-03-08T03:40:38;15.20;42.10
45843;DHT22;31563;51.744;8.252;2023-03-08T03:43:06;15.60;47.70
45843;DHT22;31563;51.744;8.252;2023-03-08T03:45:35;15.50;48.10
45843;DHT22;31563;51.744;8.252;2023-03-08T03:48:03;15.20;47.20
45843;DHT22;31563;51.744;8.252;2023-03-08T03:50:33;15.00;47.30
45843;DHT22;31563;51.744;8.252;2023-03-08T03:53:01;15.20;42.20
45843;DHT22;31563;51.744;8.252;2023-03-08T03:55:29;15.20;42.10
45843;DHT22;31563;51.744;8.252;2023-03-08T03:57:57;15.20;47.30
45843;DHT22;31563;51.744;8.252;2023-03-08T04:00:26;15.10;42.10
45843;DHT22;31563;51.744;8.252;2023-03-08T04:02:54;15.10;42.00
45843;DHT22;31563;51.744;8.252;2023-03-08T04:05:22;15.10;42.00
45843;DHT22;31563;51.744;8.252;2023-03-08T04:07:52;15.10;42.00
45843;DHT22;31563;51.744;8.252;2023-03-08T04:10:20;15.10;42.10
45843;DHT22;31563;51.744;8.252;2023-03-08T04:12:49;15.10;42.10
45843;DHT22;31563;51.744;8.252;2023-03-08T04:15:17;15.00;42.10
45843;DHT22;31563;51.744;8.252;2023-03-08T04:17:45;15.00;42.20
45843;DHT22;31563;51.744;8.252;2023-03-08T04:20:14;15.10;42.70
45843;DHT22;31563;51.744;8.252;2023-03-08T04:22:42;15.20;42.90
45843;DHT22;31563;51.744;8.252;2023-03-08T04:25:12;15.20;42.80
45843;DHT22;31563;51.744;8.252;2023-03-08T04:27:40;15.20;42.80
45843;DHT22;31563;51.744;8.252;2023-03-08T04:30:09;15.10;42.90
45843;DHT22;31563;51.744;8.252;2023-03-08T04:32:38;15.10;42.90
45843;DHT22;31563;51.744;8.252;2023-03-08T04:35:07;15.10;43.00
45843;DHT22;31563;51.744;8.252;2023-03-08T04:37:35;15.10;43.10
45843;DHT22;31563;51.744;8.252;2023-03-08T04:40:05;15.10;43.10
45843;DHT22;31563;51.744;8.252;2023-03-08T04:42:36;15.10;43.10
45843;DHT22;31563;51.744;8.252;2023-03-08T04:45:07;15.10;43.10
45843;DHT22;31563;51.744;8.252;2023-03-08T04:47:35;15.10;43.10
45843;DHT22;31563;51.744;8.252;2023-03-08T04:50:04;15.20;43.10
45843;DHT22;31563;51.744;8.252;2023-03-08T04:52:34;15.30;43.10
45843;DHT22;31563;51.744;8.252;2023-03-08T04:55:02;15.40;43.20
45843;DHT22;31563;51.744;8.252;2023-03-08T04:57:30;15.40;43.10
45843;DHT22;31563;51.744;8.252;2023-03-08T05:00:02;15.50;43.10
45843;DHT22;31563;51.744;8.252;2023-03-08T05:02:32;15.60;43.10
45843;DHT22;31563;51.744;8.252;2023-03-08T05:05:00;15.60;43.00
45843;DHT22;31563;51.744;8.252;2023-03-08T05:07:30;15.70;42.90
45843;DHT22;31563;51.744;8.252;2023-03-08T05:09:58;15.70;42.90
45843;DHT22;31563;51.744;8.252;2023-03-08T05:12:26;15.80;42.80
45843;DHT22;31563;51.744;8.252;2023-03-08T05:14:55;15.80;42.80
45843;DHT22;31563;51.744;8.252;2023-03-08T05:17:25;15.80;42.70
45843;DHT22;31563;51.744;8.252;2023-03-08T05:19:53;15.80;42.60
45843;DHT22;31563;51.744;8.252;2023-03-08T05:22:21;15.90;42.60
45843;DHT22;31563;51.744;8.252;2023-03-08T05:24:49;15.90;42.60
45843;DHT22;31563;51.744;8.252;2023-03-08T05:27:18;15.90;46.90
45843;DHT22;31563;51.744;8.252;2023-03-08T05:29:46;16.00;50.30
45843;DHT22;31563;51.744;8.252;2023-03-08T05:32:14;15.90;49.10
45843;DHT22;31563;51.744;8.252;2023-03-08T05:34:44;16.00;42.50
45843;DHT22;31563;51.744;8.252;2023-03-08T05:37:12;16.10;46.20
45843;DHT22;31563;51.744;8.252;2023-03-08T05:39:41;16.00;42.40
45843;DHT22;31563;51.744;8.252;2023-03-08T05:42:09;16.00;43.60
45843;DHT22;31563;51.744;8.252;2023-03-08T05:44:38;16.20;43.50
45843;DHT22;31563;51.744;8.252;2023-03-08T05:47:06;16.10;49.40
45843;DHT22;31563;51.744;8.252;2023-03-08T05:49:34;16.10;49.70
45843;DHT22;31563;51.744;8.252;2023-03-08T05:52:04;16.20;43.50
45843;DHT22;31563;51.744;8.252;2023-03-08T05:54:32;16.30;43.50
45843;DHT22;31563;51.744;8.252;2023-03-08T05:57:00;16.10;47.80
45843;DHT22;31563;51.744;8.252;2023-03-08T05:59:29;16.20;43.30
45843;DHT22;31563;51.744;8.252;2023-03-08T06:01:57;16.30;43.50
45843;DHT22;31563;51.744;8.252;2023-03-08T06:04:25;16.30;43.60
45843;DHT22;31563;51.744;8.252;2023-03-08T06:06:53;16.30;43.50
45843;DHT22;31563;51.744;8.252;2023-03-08T06:09:23;16.30;43.40
45843;DHT22;31563;51.744;8.252;2023-03-08T06:11:51;16.30;43.10
45843;DHT22;31563;51.744;8.252;2023-03-08T06:14:21;16.30;43.20
45843;DHT22;31563;51.744;8.252;2023-03-08T06:16:49;16.10;50.20
45843;DHT22;31563;51.744;8.252;2023-03-08T06:19:18;16.30;43.20
45843;DHT22;31563;51.744;8.252;2023-03-08T06:21:46;16.20;43.10
45843;DHT22;31563;51.744;8.252;2023-03-08T06:24:14;16.30;43.20
45843;DHT22;31563;51.744;8.252;2023-03-08T06:26:44;16.20;43.20
45843;DHT22;31563;51.744;8.252;2023-03-08T06:29:12;16.30;43.30
45843;DHT22;31563;51.744;8.252;2023-03-08T06:31:40;16.30;43.30
45843;DHT22;31563;51.744;8.252;2023-03-08T06:34:10;16.30;43.20
45843;DHT22;31563;51.744;8.252;2023-03-08T06:36:38;16.30;43.10
45843;DHT22;31563;51.744;8.252;2023-03-08T06:39:07;16.40;43.00
45843;DHT22;31563;51.744;8.252;2023-03-08T06:41:35;16.40;43.00
45843;DHT22;31563;51.744;8.252;2023-03-08T06:44:05;16.50;43.00
45843;DHT22;31563;51.744;8.252;2023-03-08T06:46:33;16.60;42.90
45843;DHT22;31563;51.744;8.252;2023-03-08T06:49:02;16.60;42.80
45843;DHT22;31563;51.744;8.252;2023-03-08T06:51:30;16.60;42.60
45843;DHT22;31563;51.744;8.252;2023-03-08T06:53:58;16.60;42.60
45843;DHT22;31563;51.744;8.252;2023-03-08T06:56:27;16.70;42.50
45843;DHT22;31563;51.744;8.252;2023-03-08T06:58:55;16.70;42.50
45843;DHT22;31563;51.744;8.252;2023-03-08T07:01:25;16.70;42.50
45843;DHT22;31563;51.744;8.252;2023-03-08T07:03:53;16.80;42.40
45843;DHT22;31563;51.744;8.252;2023-03-08T07:06:21;16.80;42.30
45843;DHT22;31563;51.744;8.252;2023-03-08T07:08:50;16.80;42.10
45843;DHT22;31563;51.744;8.252;2023-03-08T07:11:18;16.80;42.10
45843;DHT22;31563;51.744;8.252;2023-03-08T07:13:46;16.80;42.10
45843;DHT22;31563;51.744;8.252;2023-03-08T07:16:14;16.80;41.90
45843;DHT22;31563;51.744;8.252;2023-03-08T07:18:44;16.80;41.90
45843;DHT22;31563;51.744;8.252;2023-03-08T07:21:12;16.90;41.90
45843;DHT22;31563;51.744;8.252;2023-03-08T07:23:41;16.90;41.90
45843;DHT22;31563;51.744;8.252;2023-03-08T07:26:09;16.90;41.80
45843;DHT22;31563;51.744;8.252;2023-03-08T07:28:37;16.90;41.60
45843;DHT22;31563;51.744;8.252;2023-03-08T07:31:09;17.00;41.60
45843;DHT22;31563;51.744;8.252;2023-03-08T07:33:38;16.90;50.00
45843;DHT22;31563;51.744;8.252;2023-03-08T07:36:08;17.00;41.60
45843;DHT22;31563;51.744;8.252;2023-03-08T07:38:36;17.10;41.50
45843;DHT22;31563;51.744;8.252;2023-03-08T07:41:04;17.10;41.40
45843;DHT22;31563;51.744;8.252;2023-03-08T07:43:33;17.30;47.90
45843;DHT22;31563;51.744;8.252;2023-03-08T07:46:02;17.10;41.40
45843;DHT22;31563;51.744;8.252;2023-03-08T07:48:31;17.20;41.40
45843;DHT22;31563;51.744;8.252;2023-03-08T07:51:01;17.30;41.30
45843;DHT22;31563;51.744;8.252;2023-03-08T07:53:33;17.30;47.80
45843;DHT22;31563;51.744;8.252;2023-03-08T07:56:01;17.30;41.30
45843;DHT22;31563;51.744;8.252;2023-03-08T07:58:29;17.40;41.30
45843;DHT22;31563;51.744;8.252;2023-03-08T08:00:58;17.40;41.20
45843;DHT22;31563;51.744;8.252;2023-03-08T08:03:28;17.50;41.20
45843;DHT22;31563;51.744;8.252;2023-03-08T08:06:00;17.50;41.30
45843;DHT22;31563;51.744;8.252;2023-03-08T08:08:29;18.10;50.00
45843;DHT22;31563;51.744;8.252;2023-03-08T08:10:59;17.80;49.90
45843;DHT22;31563;51.744;8.252;2023-03-08T08:13:27;17.70;50.00
45843;DHT22;31563;51.744;8.252;2023-03-08T08:15:58;17.70;41.20
45843;DHT22;31563;51.744;8.252;2023-03-08T08:18:27;17.70;41.10
45843;DHT22;31563;51.744;8.252;2023-03-08T08:21:00;17.70;41.10
45843;DHT22;31563;51.744;8.252;2023-03-08T08:23:28;17.80;41.10
45843;DHT22;31563;51.744;8.252;2023-03-08T08:25:57;17.80;40.90
45843;DHT22;31563;51.744;8.252;2023-03-08T08:28:26;17.80;41.00
45843;DHT22;31563;51.744;8.252;2023-03-08T08:30:56;17.80;40.90
45843;DHT22;31563;51.744;8.252;2023-03-08T08:33:24;17.80;41.00
45843;DHT22;31563;51.744;8.252;2023-03-08T08:35:53;17.80;41.10
45843;DHT22;31563;51.744;8.252;2023-03-08T08:38:21;17.90;40.90
45843;DHT22;31563;51.744;8.252;2023-03-08T08:40:50;17.90;52.10
45843;DHT22;31563;51.744;8.252;2023-03-08T08:43:18;17.90;40.90
45843;DHT22;31563;51.744;8.252;2023-03-08T08:45:52;17.50;50.80
45843;DHT22;31563;51.744;8.252;2023-03-08T08:48:21;18.60;52.50
45843;DHT22;31563;51.744;8.252;2023-03-08T08:50:50;17.90;40.70
45843;DHT22;31563;51.744;8.252;2023-03-08T08:53:19;18.10;50.10
45843;DHT22;31563;51.744;8.252;2023-03-08T08:55:48;17.90;40.80
45843;DHT22;31563;51.744;8.252;2023-03-08T08:58:16;18.00;40.90
45843;DHT22;31563;51.744;8.252;2023-03-08T09:00:46;18.10;51.00
45843;DHT22;31563;51.744;8.252;2023-03-08T09:03:16;17.60;50.00
45843;DHT22;31563;51.744;8.252;2023-03-08T09:05:44;18.30;50.40
45843;DHT22;31563;51.744;8.252;2023-03-08T09:08:13;18.50;50.70
45843;DHT22;31563;51.744;8.252;2023-03-08T09:10:41;17.70;50.00
45843;DHT22;31563;51.744;8.252;2023-03-08T09:13:10;18.10;49.40
45843;DHT22;31563;51.744;8.252;2023-03-08T09:15:38;18.30;51.00
45843;DHT22;31563;51.744;8.252;2023-03-08T09:18:06;18.50;50.20
45843;DHT22;31563;51.744;8.252;2023-03-08T09:20:36;18.10;50.00
45843;DHT22;31563;51.744;8.252;2023-03-08T09:23:04;18.20;40.70
45843;DHT22;31563;51.744;8.252;2023-03-08T09:25:34;18.00;48.90
45843;DHT22;31563;51.744;8.252;2023-03-08T09:28:02;18.30;40.70
45843;DHT22;31563;51.744;8.252;2023-03-08T09:30:31;18.30;49.20
45843;DHT22;31563;51.744;8.252;2023-03-08T09:33:00;18.70;49.30
45843;DHT22;31563;51.744;8.252;2023-03-08T09:35:29;18.30;40.60
45843;DHT22;31563;51.744;8.252;2023-03-08T09:37:59;17.70;50.30
45843;DHT22;31563;51.744;8.252;2023-03-08T09:40:28;18.40;40.60
45843;DHT22;31563;51.744;8.252;2023-03-08T09:43:03;18.10;49.60
45843;DHT22;31563;51.744;8.252;2023-03-08T09:45:34;18.40;49.00
45843;DHT22;31563;51.744;8.252;2023-03-08T09:48:07;18.60;41.40
45843;DHT22;31563;51.744;8.252;2023-03-08T09:50:41;18.30;49.30
45843;DHT22;31563;51.744;8.252;2023-03-08T09:53:20;18.70;49.80
45843;DHT22;31563;51.744;8.252;2023-03-08T09:55:53;18.90;48.10
45843;DHT22;31563;51.744;8.252;2023-03-08T09:58:31;18.50;40.70
45843;DHT22;31563;51.744;8.252;2023-03-08T10:01:09;18.60;40.60
45843;DHT22;31563;51.744;8.252;2023-03-08T10:06:55;18.70;40.10
45843;DHT22;31563;51.744;8.252;2023-03-08T10:09:30;18.40;39.00
45843;DHT22;31563;51.744;8.252;2023-03-08T10:12:06;18.50;39.80
45843;DHT22;31563;51.744;8.252;2023-03-08T10:14:42;18.60;49.30
45843;DHT22;31563;51.744;8.252;2023-03-08T10:17:16;18.60;49.20
45843;DHT22;31563;51.744;8.252;2023-03-08T10:19:51;18.50;50.50
45843;DHT22;31563;51.744;8.252;2023-03-08T10:22:24;18.60;39.80
45843;DHT22;31563;51.744;8.252;2023-03-08T10:24:59;18.60;39.70
45843;DHT22;31563;51.744;8.252;2023-03-08T10:27:31;18.70;40.50
45843;DHT22;31563;51.744;8.252;2023-03-08T10:30:01;19.70;51.60
45843;DHT22;31563;51.744;8.252;2023-03-08T10:32:42;18.90;51.70
45843;DHT22;31563;51.744;8.252;2023-03-08T10:35:11;18.90;52.20
45843;DHT22;31563;51.744;8.252;2023-03-08T10:37:39;18.70;51.60
45843;DHT22;31563;51.744;8.252;2023-03-08T10:40:14;18.90;52.40
45843;DHT22;31563;51.744;8.252;2023-03-08T10:42:48;19.10;51.60
45843;DHT22;31563;51.744;8.252;2023-03-08T10:45:20;19.00;51.70
45843;DHT22;31563;51.744;8.252;2023-03-08T10:47:56;18.90;41.10
45843;DHT22;31563;51.744;8.252;2023-03-08T10:50:26;18.90;41.70
45843;DHT22;31563;51.744;8.252;2023-03-08T10:52:55;19.00;41.10
45843;DHT22;31563;51.744;8.252;2023-03-08T10:55:42;19.10;49.40
45843;DHT22;31563;51.744;8.252;2023-03-08T10:58:31;19.00;51.30
45843;DHT22;31563;51.744;8.252;2023-03-08T11:01:02;19.10;40.90
45843;DHT22;31563;51.744;8.252;2023-03-08T11:03:31;19.30;50.40
45843;DHT22;31563;51.744;8.252;2023-03-08T11:06:01;19.10;40.90
45843;DHT22;31563;51.744;8.252;2023-03-08T11:08:30;19.20;40.90
45843;DHT22;31563;51.744;8.252;2023-03-08T11:11:05;19.20;50.50
45843;DHT22;31563;51.744;8.252;2023-03-08T11:13:36;19.10;49.90
45843;DHT22;31563;51.744;8.252;2023-03-08T11:16:12;19.20;40.80
45843;DHT22;31563;51.744;8.252;2023-03-08T11:18:49;19.30;50.90
45843;DHT22;31563;51.744;8.252;2023-03-08T11:21:24;19.10;40.50
45843;DHT22;31563;51.744;8.252;2023-03-08T11:23:57;19.10;40.50
45843;DHT22;31563;51.744;8.252;2023-03-08T11:26:34;18.90;51.30
45843;DHT22;31563;51.744;8.252;2023-03-08T11:29:11;18.80;50.90
45843;DHT22;31563;51.744;8.252;2023-03-08T11:31:47;19.30;52.30
45843;DHT22;31563;51.744;8.252;2023-03-08T11:37:22;19.10;52.20
45843;DHT22;31563;51.744;8.252;2023-03-08T11:39:58;18.90;40.70
45843;DHT22;31563;51.744;8.252;2023-03-08T11:42:43;19.30;51.40
45843;DHT22;31563;51.744;8.252;2023-03-08T11:45:25;18.40;51.30
45843;DHT22;31563;51.744;8.252;2023-03-08T11:48:09;18.90;40.70
45843;DHT22;31563;51.744;8.252;2023-03-08T11:50:44;19.40;52.70
45843;DHT22;31563;51.744;8.252;2023-03-08T11:53:18;18.90;51.80
45843;DHT22;31563;51.744;8.252;2023-03-08T11:56:07;19.00;53.90
45843;DHT22;31563;51.744;8.252;2023-03-08T11:58:41;19.00;52.50
45843;DHT22;31563;51.744;8.252;2023-03-08T12:01:18;19.00;40.50
45843;DHT22;31563;51.744;8.252;2023-03-08T12:03:52;19.70;53.60
45843;DHT22;31563;51.744;8.252;2023-03-08T12:06:24;18.80;51.80
45843;DHT22;31563;51.744;8.252;2023-03-08T12:08:59;19.10;50.80
45843;DHT22;31563;51.744;8.252;2023-03-08T12:11:32;18.90;40.50
45843;DHT22;31563;51.744;8.252;2023-03-08T12:14:10;18.90;40.50
45843;DHT22;31563;51.744;8.252;2023-03-08T12:16:46;18.50;50.50
45843;DHT22;31563;51.744;8.252;2023-03-08T12:19:27;19.00;52.80
45843;DHT22;31563;51.744;8.252;2023-03-08T12:22:04;19.00;40.50
45843;DHT22;31563;51.744;8.252;2023-03-08T12:24:44;19.00;51.70
45843;DHT22;31563;51.744;8.252;2023-03-08T12:27:17;19.00;51.60
45843;DHT22;31563;51.744;8.252;2023-03-08T12:29:53;19.30;52.90
45843;DHT22;31563;51.744;8.252;2023-03-08T12:32:23;19.10;52.20
45843;DHT22;31563;51.744;8.252;2023-03-08T12:34:59;19.00;40.30
45843;DHT22;31563;51.744;8.252;2023-03-08T12:37:28;19.00;40.10
45843;DHT22;31563;51.744;8.252;2023-03-08T12:40:00;19.00;40.70
45843;DHT22;31563;51.744;8.252;2023-03-08T12:42:35;19.20;52.20
45843;DHT22;31563;51.744;8.252;2023-03-08T12:45:27;19.00;40.90
45843;DHT22;31563;51.744;8.252;2023-03-08T12:48:06;19.10;41.40
45843;DHT22;31563;51.744;8.252;2023-03-08T12:50:40;18.90;50.80
45843;DHT22;31563;51.744;8.252;2023-03-08T12:53:25;19.80;42.90
45843;DHT22;31563;51.744;8.252;2023-03-08T12:56:02;19.30;41.80
45843;DHT22;31563;51.744;8.252;2023-03-08T12:58:32;19.00;53.20
45843;DHT22;31563;51.744;8.252;2023-03-08T13:01:04;19.30;54.00
45843;DHT22;31563;51.744;8.252;2023-03-08T13:03:37;19.60;53.50
45843;DHT22;31563;51.744;8.252;2023-03-08T13:06:42;19.20;41.60
45843;DHT22;31563;51.744;8.252;2023-03-08T13:09:20;19.20;41.00
45843;DHT22;31563;51.744;8.252;2023-03-08T13:11:57;19.20;41.50
45843;DHT22;31563;51.744;8.252;2023-03-08T13:14:36;19.20;41.50
45843;DHT22;31563;51.744;8.252;2023-03-08T13:17:35;19.50;53.70
45843;DHT22;31563;51.744;8.252;2023-03-08T13:20:15;19.20;41.40
45843;DHT22;31563;51.744;8.252;2023-03-08T13:23:03;19.10;51.60
45843;DHT22;31563;51.744;8.252;2023-03-08T13:25:55;19.50;52.30
45843;DHT22;31563;51.744;8.252;2023-03-08T13:28:26;19.20;41.00
45843;DHT22;31563;51.744;8.252;2023-03-08T13:31:14;19.00;53.40
45843;DHT22;31563;51.744;8.252;2023-03-08T13:33:47;19.10;53.60
45843;DHT22;31563;51.744;8.252;2023-03-08T13:36:18;19.20;41.30
45843;DHT22;31563;51.744;8.252;2023-03-08T13:38:56;18.80;53.90
45843;DHT22;31563;51.744;8.252;2023-03-08T13:41:32;19.20;41.30
45843;DHT22;31563;51.744;8.252;2023-03-08T13:44:01;19.30;53.50
45843;DHT22;31563;51.744;8.252;2023-03-08T13:46:29;19.20;41.20
45843;DHT22;31563;51.744;8.252;2023-03-08T13:48:59;19.30;41.20
45843;DHT22;31563;51.744;8.252;2023-03-08T13:51:28;19.30;52.90
45843;DHT22;31563;51.744;8.252;2023-03-08T13:53:57;19.30;41.10
45843;DHT22;31563;51.744;8.252;2023-03-08T13:56:27;19.70;52.50
45843;DHT22;31563;51.744;8.252;2023-03-08T13:58:56;19.30;40.90
45843;DHT22;31563;51.744;8.252;2023-03-08T14:01:26;19.40;52.60
45843;DHT22;31563;51.744;8.252;2023-03-08T14:03:55;19.50;52.80
45843;DHT22;31563;51.744;8.252;2023-03-08T14:06:28;19.40;40.80
45843;DHT22;31563;51.744;8.252;2023-03-08T14:08:57;19.10;53.10
45843;DHT22;31563;51.744;8.252;2023-03-08T14:11:29;19.50;40.80
45843;DHT22;31563;51.744;8.252;2023-03-08T14:13:59;19.80;52.30
45843;DHT22;31563;51.744;8.252;2023-03-08T14:16:31;19.60;41.00
45843;DHT22;31563;51.744;8.252;2023-03-08T14:19:09;19.20;51.90
45843;DHT22;31563;51.744;8.252;2023-03-08T14:21:47;19.50;51.60
45843;DHT22;31563;51.744;8.252;2023-03-08T14:24:20;19.70;41.00
45843;DHT22;31563;51.744;8.252;2023-03-08T14:26:56;19.60;52.60
45843;DHT22;31563;51.744;8.252;2023-03-08T14:29:27;19.50;53.10
45843;DHT22;31563;51.744;8.252;2023-03-08T14:32:01;19.60;52.10
45843;DHT22;31563;51.744;8.252;2023-03-08T14:34:32;19.70;40.50
45843;DHT22;31563;51.744;8.252;2023-03-08T14:37:04;19.70;41.10
45843;DHT22;31563;51.744;8.252;2023-03-08T14:39:35;19.70;50.10
45843;DHT22;31563;51.744;8.252;2023-03-08T14:42:19;19.80;41.10
45843;DHT22;31563;51.744;8.252;2023-03-08T14:44:50;20.00;52.30
45843;DHT22;31563;51.744;8.252;2023-03-08T14:47:22;20.20;51.80
45843;DHT22;31563;51.744;8.252;2023-03-08T14:50:00;19.80;41.10
45843;DHT22;31563;51.744;8.252;2023-03-08T14:52:33;19.90;41.00
45843;DHT22;31563;51.744;8.252;2023-03-08T14:55:02;19.50;50.30
45843;DHT22;31563;51.744;8.252;2023-03-08T14:57:30;20.10;43.50
45843;DHT22;31563;51.744;8.252;2023-03-08T15:00:04;19.60;51.20
45843;DHT22;31563;51.744;8.252;2023-03-08T15:02:33;20.50;52.60
45843;DHT22;31563;51.744;8.252;2023-03-08T15:05:02;19.60;51.10
45843;DHT22;31563;51.744;8.252;2023-03-08T15:07:35;20.10;51.00
45843;DHT22;31563;51.744;8.252;2023-03-08T15:10:05;19.70;40.90
45843;DHT22;31563;51.744;8.252;2023-03-08T15:12:34;19.10;52.80
45843;DHT22;31563;51.744;8.252;2023-03-08T15:15:11;19.70;41.00
45843;DHT22;31563;51.744;8.252;2023-03-08T15:17:40;19.70;52.90
45843;DHT22;31563;51.744;8.252;2023-03-08T15:20:10;19.60;41.00
45843;DHT22;31563;51.744;8.252;2023-03-08T15:22:44;19.40;53.90
45843;DHT22;31563;51.744;8.252;2023-03-08T15:25:16;19.50;41.00
45843;DHT22;31563;51.744;8.252;2023-03-08T15:27:45;19.20;53.70
45843;DHT22;31563;51.744;8.252;2023-03-08T15:30:17;19.50;41.00
45843;DHT22;31563;51.744;8.252;2023-03-08T15:32:46;19.30;54.30
45843;DHT22;31563;51.744;8.252;2023-03-08T15:35:15;19.60;52.70
45843;DHT22;31563;51.744;8.252;2023-03-08T15:37:45;19.50;51.20
45843;DHT22;31563;51.744;8.252;2023-03-08T15:40:14;19.40;40.50
45843;DHT22;31563;51.744;8.252;2023-03-08T15:42:43;19.20;52.30
45843;DHT22;31563;51.744;8.252;2023-03-08T15:45:12;19.20;39.70
45843;DHT22;31563;51.744;8.252;2023-03-08T15:47:41;18.70;50.00
45843;DHT22;31563;51.744;8.252;2023-03-08T15:50:14;18.80;38.30
45843;DHT22;31563;51.744;8.252;2023-03-08T15:52:44;18.60;51.60
45843;DHT22;31563;51.744;8.252;2023-03-08T15:55:13;18.70;39.70
45843;DHT22;31563;51.744;8.252;2023-03-08T15:57:41;19.10;54.40
45843;DHT22;31563;51.744;8.252;2023-03-08T16:00:12;18.90;40.00
45843;DHT22;31563;51.744;8.252;2023-03-08T16:02:41;19.00;54.90